createdAt,value
2022-12-13T00:02:05.990Z,22.98
2022-12-13T00:04:35.601Z,22.50
2022-12-13T00:07:05.182Z,22.25
2022-12-13T00:09:34.807Z,22.19
2022-12-13T00:12:04.409Z,22.03
2022-12-13T00:14:34.254Z,21.95
2022-12-13T00:17:03.830Z,21.91
2022-12-13T00:19:33.376Z,21.88
2022-12-13T00:22:03.004Z,21.91
2022-12-13T00:24:32.661Z,21.90
2022-12-13T00:27:02.545Z,21.89
2022-12-13T00:29:32.095Z,21.83
2022-12-13T00:32:01.865Z,21.84
2022-12-13T00:34:32.155Z,21.89
2022-12-13T00:37:01.819Z,21.99
2022-12-13T00:39:31.493Z,21.81
2022-12-13T00:42:01.048Z,21.88
2022-12-13T00:44:30.839Z,21.79
2022-12-13T00:47:00.450Z,21.77
2022-12-13T00:49:30.085Z,21.66
2022-12-13T00:51:59.816Z,21.70
2022-12-13T00:54:29.883Z,21.62
2022-12-13T00:56:59.489Z,21.52
2022-12-13T00:59:29.118Z,21.53
2022-12-13T01:01:59.149Z,21.58
2022-12-13T01:04:28.923Z,21.59
2022-12-13T01:06:58.544Z,21.67
2022-12-13T01:09:31.264Z,21.64
2022-12-13T01:12:06.866Z,21.53
2022-12-13T01:14:41.404Z,21.76
2022-12-13T01:17:11.472Z,21.75
2022-12-13T01:19:41.168Z,21.75
2022-12-13T01:22:12.737Z,21.73
2022-12-13T01:24:42.846Z,21.79
2022-12-13T01:27:12.806Z,21.71
2022-12-13T01:29:42.474Z,21.76
2022-12-13T01:32:12.030Z,21.64
2022-12-13T01:34:41.631Z,21.46
2022-12-13T01:37:11.183Z,21.60
2022-12-13T01:39:40.856Z,21.62
2022-12-13T01:42:16.839Z,21.63
2022-12-13T01:44:58.731Z,21.60
2022-12-13T01:47:37.445Z,21.61
2022-12-13T01:50:12.132Z,21.75
2022-12-13T01:52:44.703Z,21.52
2022-12-13T01:55:17.385Z,21.68
2022-12-13T01:57:52.325Z,21.80
2022-12-13T02:00:22.344Z,21.96
2022-12-13T02:02:52.322Z,21.94
2022-12-13T02:05:36.507Z,21.77
2022-12-13T02:08:07.001Z,21.84
2022-12-13T02:10:36.638Z,21.76
2022-12-13T02:13:07.194Z,21.91
2022-12-13T02:16:01.312Z,21.87
2022-12-13T02:18:42.362Z,22.03
2022-12-13T02:21:38.015Z,21.98
2022-12-13T02:24:26.587Z,22.01
2022-12-13T02:27:01.805Z,22.01
2022-12-13T02:29:43.279Z,22.06
2022-12-13T02:32:15.483Z,22.13
2022-12-13T02:34:49.271Z,22.04
2022-12-13T02:37:31.590Z,21.92
2022-12-13T02:40:13.194Z,21.97
2022-12-13T02:43:03.557Z,21.93
2022-12-13T02:45:43.195Z,21.82
2022-12-13T02:48:15.876Z,21.59
2022-12-13T02:50:46.778Z,21.74
2022-12-13T02:53:18.437Z,21.71
2022-12-13T02:55:48.110Z,21.67
2022-12-13T02:58:25.266Z,21.66
2022-12-13T03:01:27.869Z,21.75
2022-12-13T03:04:14.565Z,21.61
2022-12-13T03:06:46.761Z,21.51
2022-12-13T03:09:28.430Z,21.51
2022-12-13T03:12:22.075Z,21.66
2022-12-13T03:15:19.904Z,21.75
2022-12-13T03:17:56.708Z,21.84
2022-12-13T03:20:29.273Z,21.79
2022-12-13T03:23:00.287Z,21.80
2022-12-13T03:25:33.810Z,21.84
2022-12-13T03:28:03.813Z,21.96
2022-12-13T03:30:35.222Z,21.92
2022-12-13T03:33:04.888Z,21.99
2022-12-13T03:35:44.782Z,22.20
2022-12-13T03:38:21.732Z,22.31
2022-12-13T03:41:06.240Z,22.32
2022-12-13T03:43:36.065Z,22.59
2022-12-13T03:46:05.670Z,22.58
2022-12-13T03:48:35.649Z,22.51
2022-12-13T03:51:05.492Z,22.64
2022-12-13T03:53:35.606Z,22.73
2022-12-13T03:56:07.445Z,22.86
2022-12-13T03:58:38.346Z,23.02
2022-12-13T04:01:13.785Z,23.03
2022-12-13T04:03:45.347Z,23.08
2022-12-13T04:06:21.799Z,23.09
2022-12-13T04:08:53.794Z,23.06
2022-12-13T04:11:42.783Z,23.15
2022-12-13T04:14:22.385Z,23.22
2022-12-13T04:16:53.970Z,23.22
2022-12-13T04:19:24.201Z,23.24
2022-12-13T04:21:55.719Z,23.12
2022-12-13T04:24:30.964Z,23.10
2022-12-13T04:27:02.845Z,23.15
2022-12-13T04:29:34.489Z,23.05
2022-12-13T04:32:26.580Z,22.99
2022-12-13T04:35:00.843Z,22.85
2022-12-13T04:37:32.045Z,22.86
2022-12-13T04:40:01.716Z,22.86
2022-12-13T04:42:31.293Z,22.86
2022-12-13T04:45:00.912Z,22.77
2022-12-13T04:47:30.506Z,22.65
2022-12-13T04:50:00.171Z,22.60
2022-12-13T04:52:30.419Z,22.65
2022-12-13T04:57:29.400Z,22.63
2022-12-13T04:59:58.974Z,22.69
2022-12-13T05:02:29.621Z,22.47
2022-12-13T05:04:59.194Z,22.42
2022-12-13T05:07:29.844Z,22.45
2022-12-13T05:09:59.460Z,22.35
2022-12-13T05:12:29.169Z,22.28
2022-12-13T05:14:59.103Z,22.15
2022-12-13T05:17:28.692Z,22.22
2022-12-13T05:19:58.305Z,22.13
2022-12-13T05:22:28.247Z,22.08
2022-12-13T05:24:57.859Z,21.89
2022-12-13T05:27:27.401Z,21.92
2022-12-13T05:30:03.961Z,21.95
2022-12-13T05:32:43.306Z,21.93
2022-12-13T05:35:23.095Z,21.94
2022-12-13T05:37:54.998Z,21.90
2022-12-13T05:40:30.487Z,21.77
2022-12-13T05:43:01.982Z,21.81
2022-12-13T05:45:33.169Z,21.73
2022-12-13T05:48:03.379Z,21.79
2022-12-13T05:50:33.006Z,21.75
2022-12-13T05:53:02.689Z,21.69
2022-12-13T05:55:32.282Z,21.63
2022-12-13T05:58:02.687Z,21.29
2022-12-13T06:00:33.048Z,21.37
2022-12-13T06:03:03.057Z,21.49
2022-12-13T06:05:33.216Z,21.45
2022-12-13T06:08:03.297Z,21.25
2022-12-13T06:11:09.936Z,21.34
2022-12-13T06:13:45.432Z,21.28
2022-12-13T06:16:22.936Z,21.30
2022-12-13T06:19:03.256Z,21.23
2022-12-13T06:21:44.045Z,21.24
2022-12-13T06:24:21.129Z,21.32
2022-12-13T06:26:52.087Z,21.28
2022-12-13T06:29:25.536Z,21.33
2022-12-13T06:32:01.735Z,21.31
2022-12-13T06:34:35.713Z,21.30
2022-12-13T06:37:08.492Z,21.36
2022-12-13T06:39:38.311Z,21.32
2022-12-13T06:42:09.765Z,21.85
2022-12-13T06:44:39.295Z,22.24
2022-12-13T06:47:11.493Z,22.55
2022-12-13T06:49:45.008Z,22.79
2022-12-13T06:52:15.902Z,23.03
2022-12-13T06:54:46.121Z,23.11
2022-12-13T06:57:16.453Z,23.19
2022-12-13T06:59:46.185Z,23.22
2022-12-13T07:02:24.993Z,23.25
2022-12-13T07:04:56.232Z,23.31
2022-12-13T07:07:27.614Z,23.35
2022-12-13T07:09:57.796Z,23.38
2022-12-13T07:12:27.361Z,23.40
2022-12-13T07:14:57.611Z,23.44
2022-12-13T07:17:32.775Z,23.44
2022-12-13T07:20:09.284Z,23.45
2022-12-13T07:22:46.602Z,23.41
2022-12-13T07:25:28.303Z,23.44
2022-12-13T07:28:01.272Z,23.38
2022-12-13T07:30:42.289Z,23.40
2022-12-13T07:33:12.912Z,23.43
2022-12-13T07:35:55.487Z,23.39
2022-12-13T07:38:25.241Z,23.41
2022-12-13T07:40:58.046Z,23.42
2022-12-13T07:43:28.193Z,23.44
2022-12-13T07:46:01.225Z,23.46
2022-12-13T07:48:32.106Z,23.44
2022-12-13T07:51:07.345Z,23.34
2022-12-13T07:53:37.238Z,23.37
2022-12-13T07:56:09.485Z,23.35
2022-12-13T07:58:39.491Z,23.33
2022-12-13T08:01:11.980Z,23.37
2022-12-13T08:03:41.667Z,23.37
2022-12-13T08:06:13.833Z,23.41
2022-12-13T08:08:43.479Z,23.42
2022-12-13T08:11:16.989Z,23.40
2022-12-13T08:13:45.968Z,23.35
2022-12-13T08:16:27.532Z,23.24
2022-12-13T08:19:03.283Z,23.07
2022-12-13T08:24:30.176Z,22.71
2022-12-13T08:27:04.676Z,22.58
2022-12-13T08:29:36.396Z,22.43
2022-12-13T08:32:14.682Z,22.30
2022-12-13T08:34:44.649Z,22.24
2022-12-13T08:37:14.736Z,22.11
2022-12-13T08:39:44.372Z,22.03
2022-12-13T08:42:19.286Z,21.97
2022-12-13T08:44:51.847Z,21.88
2022-12-13T08:47:26.061Z,21.81
2022-12-13T08:50:02.336Z,21.75
2022-12-13T08:52:39.465Z,21.73
2022-12-13T08:55:12.077Z,21.70
2022-12-13T08:57:42.747Z,21.66
2022-12-13T09:00:17.580Z,21.65
2022-12-13T09:02:47.806Z,21.57
2022-12-13T09:05:33.237Z,21.60
2022-12-13T09:08:23.452Z,21.56
2022-12-13T09:11:10.668Z,21.56
2022-12-13T09:13:50.680Z,21.50
2022-12-13T09:16:25.430Z,21.46
2022-12-13T09:18:56.171Z,21.42
2022-12-13T09:21:31.847Z,21.40
2022-12-13T09:24:02.804Z,21.41
2022-12-13T09:26:37.693Z,21.36
2022-12-13T09:29:11.742Z,21.37
2022-12-13T09:31:41.887Z,21.36
2022-12-13T09:34:12.938Z,21.34
2022-12-13T09:36:43.709Z,21.35
2022-12-13T09:39:13.691Z,21.31
2022-12-13T09:41:45.650Z,21.28
2022-12-13T09:44:31.992Z,21.28
2022-12-13T09:47:13.706Z,21.23
2022-12-13T09:49:51.857Z,21.22
2022-12-13T09:52:25.718Z,21.13
2022-12-13T09:54:58.427Z,21.13
2022-12-13T09:57:34.390Z,21.11
2022-12-13T10:00:12.517Z,21.08
2022-12-13T10:02:53.854Z,21.07
2022-12-13T10:05:40.410Z,21.03
2022-12-13T10:08:24.399Z,21.01
2022-12-13T10:10:54.735Z,20.97
2022-12-13T10:13:50.935Z,20.98
2022-12-13T10:16:36.505Z,20.96
2022-12-13T10:19:55.342Z,20.92
2022-12-13T10:22:25.040Z,20.90
2022-12-13T10:25:01.793Z,20.83
2022-12-13T10:27:35.262Z,20.81
2022-12-13T10:30:29.084Z,20.79
2022-12-13T10:33:00.207Z,20.79
2022-12-13T10:35:31.153Z,20.69
2022-12-13T10:38:31.716Z,20.69
2022-12-13T10:41:02.059Z,20.68
2022-12-13T10:43:31.999Z,20.65
2022-12-13T10:46:05.564Z,20.64
2022-12-13T10:48:38.980Z,20.65
2022-12-13T10:51:11.958Z,20.61
2022-12-13T10:53:48.235Z,20.58
2022-12-13T10:56:23.351Z,20.53
2022-12-13T10:59:17.521Z,20.51
2022-12-13T11:01:47.706Z,20.51
2022-12-13T11:04:33.123Z,20.45
2022-12-13T11:07:23.801Z,20.46
2022-12-13T11:09:53.448Z,20.44
2022-12-13T11:12:26.726Z,20.43
2022-12-13T11:14:56.209Z,20.41
2022-12-13T11:17:29.534Z,20.40
2022-12-13T11:20:03.788Z,20.39
2022-12-13T11:22:36.729Z,20.40
2022-12-13T11:25:21.644Z,20.38
2022-12-13T11:28:26.604Z,20.37
2022-12-13T11:31:01.299Z,20.37
2022-12-13T11:33:48.300Z,20.37
2022-12-13T11:36:34.441Z,20.35
2022-12-13T11:39:03.917Z,20.34
2022-12-13T11:41:50.766Z,20.33
2022-12-13T11:44:32.858Z,20.30
2022-12-13T11:47:03.784Z,20.26
2022-12-13T11:49:47.084Z,20.26
2022-12-13T11:52:31.549Z,20.25
2022-12-13T11:55:27.075Z,20.20
2022-12-13T11:58:03.522Z,20.19
2022-12-13T12:00:41.887Z,20.15
2022-12-13T12:03:23.992Z,20.15
2022-12-13T12:06:03.592Z,20.11
2022-12-13T12:08:44.426Z,20.13
2022-12-13T12:11:20.520Z,20.10
2022-12-13T12:14:15.059Z,20.07
2022-12-13T12:17:02.717Z,20.07
2022-12-13T12:19:40.186Z,20.04
2022-12-13T12:22:51.156Z,20.05
2022-12-13T12:25:30.583Z,20.01
2022-12-13T12:28:33.523Z,20.02
2022-12-13T12:31:03.013Z,20.00
2022-12-13T12:33:47.508Z,19.97
2022-12-13T12:37:03.671Z,19.95
2022-12-13T12:40:07.547Z,19.92
2022-12-13T12:43:14.287Z,19.88
2022-12-13T12:46:13.060Z,19.85
2022-12-13T12:49:06.085Z,19.80
2022-12-13T12:51:57.291Z,19.81
2022-12-13T12:54:51.358Z,19.79
2022-12-13T12:57:28.245Z,19.78
2022-12-13T13:00:20.682Z,19.72
2022-12-13T13:03:18.786Z,19.74
2022-12-13T13:06:14.316Z,19.67
2022-12-13T13:09:06.619Z,19.66
2022-12-13T13:11:44.679Z,19.65
2022-12-13T13:14:32.671Z,19.62
2022-12-13T13:17:22.966Z,19.61
2022-12-13T13:19:55.937Z,19.62
2022-12-13T13:22:44.252Z,19.59
2022-12-13T13:25:43.951Z,19.59
2022-12-13T13:28:24.627Z,19.57
2022-12-13T13:31:05.294Z,19.56
2022-12-13T13:33:40.915Z,19.55
2022-12-13T13:36:11.688Z,19.53
2022-12-13T13:39:01.607Z,19.51
2022-12-13T13:42:02.750Z,19.49
2022-12-13T13:44:54.790Z,19.46
2022-12-13T13:47:24.346Z,19.43
2022-12-13T13:50:15.011Z,19.41
2022-12-13T13:53:13.559Z,19.38
2022-12-13T13:56:16.206Z,19.36
2022-12-13T13:59:22.747Z,19.33
2022-12-13T14:02:48.467Z,19.30
2022-12-13T14:05:31.249Z,19.24
2022-12-13T14:08:20.655Z,19.23
2022-12-13T14:11:27.177Z,19.25
2022-12-13T14:14:24.771Z,19.21
2022-12-13T14:17:35.100Z,19.19
2022-12-13T14:20:30.573Z,19.16
2022-12-13T14:23:38.486Z,19.14
2022-12-13T14:26:39.006Z,19.14
2022-12-13T14:29:17.010Z,19.11
2022-12-13T14:31:49.439Z,19.06
2022-12-13T14:34:30.533Z,18.99
2022-12-13T14:37:05.835Z,18.98
2022-12-13T14:39:36.277Z,18.95
2022-12-13T14:42:50.137Z,18.91
2022-12-13T14:45:36.009Z,18.90
2022-12-13T14:48:29.142Z,18.90
2022-12-13T14:50:59.410Z,18.92
2022-12-13T14:53:42.975Z,18.93
2022-12-13T14:56:27.352Z,18.90
2022-12-13T14:59:04.214Z,18.88
2022-12-13T15:01:42.472Z,18.85
2022-12-13T15:04:39.397Z,18.83
2022-12-13T15:07:15.122Z,18.80
2022-12-13T15:09:47.333Z,18.79
2022-12-13T15:12:24.508Z,18.77
2022-12-13T15:15:06.889Z,18.76
2022-12-13T15:17:39.000Z,18.70
2022-12-13T15:20:35.091Z,18.68
2022-12-13T15:23:29.183Z,18.68
2022-12-13T15:26:28.010Z,18.63
2022-12-13T15:29:09.441Z,18.59
2022-12-13T15:31:41.978Z,18.55
2022-12-13T15:34:36.808Z,18.58
2022-12-13T15:37:29.646Z,18.54
2022-12-13T15:40:15.870Z,18.53
2022-12-13T15:42:48.984Z,18.53
2022-12-13T15:45:36.655Z,18.49
2022-12-13T15:48:07.581Z,18.48
2022-12-13T15:50:47.222Z,18.47
2022-12-13T15:53:30.244Z,18.46
2022-12-13T15:56:02.289Z,18.42
2022-12-13T15:58:38.646Z,18.40
2022-12-13T16:01:08.249Z,18.41
2022-12-13T16:03:48.741Z,18.41
2022-12-13T16:06:24.294Z,18.35
2022-12-13T16:09:00.191Z,18.34
2022-12-13T16:11:34.098Z,18.32
2022-12-13T16:14:33.982Z,18.33
2022-12-13T16:17:26.037Z,18.31
2022-12-13T16:19:57.456Z,18.29
2022-12-13T16:22:27.306Z,18.29
2022-12-13T16:24:58.007Z,18.27
2022-12-13T16:27:27.591Z,18.24
2022-12-13T16:29:57.106Z,18.20
2022-12-13T16:32:26.785Z,18.24
2022-12-13T16:34:56.353Z,18.25
2022-12-13T16:37:28.706Z,18.22
2022-12-13T16:39:58.335Z,18.20
2022-12-13T16:42:28.927Z,18.18
2022-12-13T16:45:32.415Z,18.10
2022-12-13T16:47:50.443Z,18.11
2022-12-13T16:50:22.879Z,18.13
2022-12-13T16:52:52.494Z,18.12
2022-12-13T16:55:22.030Z,18.07
2022-12-13T16:58:01.839Z,18.05
2022-12-13T17:00:32.382Z,18.06
2022-12-13T17:03:02.557Z,18.02
2022-12-13T17:05:32.648Z,18.03
2022-12-13T17:08:02.662Z,18.00
2022-12-13T17:10:32.294Z,18.01
2022-12-13T17:13:01.810Z,17.91
2022-12-13T17:15:31.756Z,17.90
2022-12-13T17:18:01.428Z,17.92
2022-12-13T17:20:31.006Z,17.90
2022-12-13T17:23:00.737Z,17.89
2022-12-13T17:25:30.315Z,17.90
2022-12-13T17:28:00.264Z,17.89
2022-12-13T17:30:34.037Z,17.85
2022-12-13T17:33:04.992Z,17.82
2022-12-13T17:35:34.535Z,17.76
2022-12-13T17:38:04.105Z,17.74
2022-12-13T17:40:33.676Z,17.69
2022-12-13T17:43:03.233Z,17.70
2022-12-13T17:45:32.803Z,17.65
2022-12-13T17:48:02.326Z,17.67
2022-12-13T17:50:32.187Z,17.67
2022-12-13T17:53:01.742Z,17.69
2022-12-13T17:55:35.668Z,17.63
2022-12-13T17:58:05.196Z,17.65
2022-12-13T18:00:34.927Z,17.63
2022-12-13T18:03:04.549Z,17.62
2022-12-13T18:05:35.384Z,17.61
2022-12-13T18:08:04.935Z,17.54
2022-12-13T18:10:34.504Z,17.53
2022-12-13T18:13:04.038Z,17.57
2022-12-13T18:15:36.073Z,17.53
2022-12-13T18:18:12.869Z,17.50
2022-12-13T18:20:42.621Z,17.51
2022-12-13T18:23:12.486Z,17.49
2022-12-13T18:25:42.518Z,17.47
2022-12-13T18:28:12.269Z,17.50
2022-12-13T18:30:41.878Z,17.50
2022-12-13T18:33:13.977Z,17.46
2022-12-13T18:35:43.541Z,17.44
2022-12-13T18:38:13.138Z,17.45
2022-12-13T18:40:42.697Z,17.41
2022-12-13T18:43:12.269Z,17.41
2022-12-13T18:45:41.831Z,17.41
2022-12-13T18:48:11.672Z,17.42
2022-12-13T18:50:47.109Z,17.39
2022-12-13T18:53:18.259Z,17.37
2022-12-13T18:55:47.801Z,17.37
2022-12-13T18:58:17.325Z,17.32
2022-12-13T19:00:47.551Z,17.31
2022-12-13T19:03:17.617Z,17.30
2022-12-13T19:05:47.220Z,17.27
2022-12-13T19:08:16.734Z,17.25
2022-12-13T19:10:50.035Z,17.21
2022-12-13T19:13:19.593Z,17.25
2022-12-13T19:15:49.150Z,17.29
2022-12-13T19:18:18.945Z,17.22
2022-12-13T19:20:50.304Z,17.19
2022-12-13T19:23:20.568Z,17.23
2022-12-13T19:25:50.294Z,17.15
2022-12-13T19:28:20.208Z,17.15
2022-12-13T19:30:50.217Z,17.13
2022-12-13T19:33:19.974Z,17.13
2022-12-13T19:35:49.510Z,17.10
2022-12-13T19:38:19.085Z,17.11
2022-12-13T19:40:48.634Z,17.14
2022-12-13T19:43:18.241Z,17.12
2022-12-13T19:45:48.430Z,17.11
2022-12-13T19:48:18.444Z,17.09
2022-12-13T19:50:48.207Z,17.10
2022-12-13T19:53:18.861Z,17.08
2022-12-13T19:55:48.610Z,17.07
2022-12-13T19:58:18.322Z,17.05
2022-12-13T20:00:48.070Z,17.04
2022-12-13T20:03:17.950Z,17.01
2022-12-13T20:05:58.075Z,17.00
2022-12-13T20:08:27.958Z,16.94
2022-12-13T20:11:03.910Z,16.93
2022-12-13T20:13:34.543Z,16.95
2022-12-13T20:16:05.973Z,16.92
2022-12-13T20:18:36.468Z,16.90
2022-12-13T20:21:13.273Z,16.88
2022-12-13T20:26:35.531Z,16.84
2022-12-13T20:27:23.342Z,16.85
2022-12-13T20:29:07.000Z,16.92
2022-12-13T20:31:39.581Z,17.25
2022-12-13T20:34:11.735Z,17.52
2022-12-13T20:36:41.394Z,17.82
2022-12-13T20:39:14.043Z,18.08
2022-12-13T20:41:44.057Z,18.48
2022-12-13T20:44:15.052Z,18.79
2022-12-13T20:46:44.778Z,19.00
2022-12-13T20:49:14.307Z,19.39
2022-12-13T20:51:44.337Z,19.58
2022-12-13T20:54:13.974Z,19.91
2022-12-13T20:56:43.615Z,20.18
2022-12-13T20:59:14.924Z,20.46
2022-12-13T21:01:48.984Z,20.74
2022-12-13T21:04:19.029Z,20.90
2022-12-13T21:06:48.607Z,21.05
2022-12-13T21:09:18.188Z,21.07
2022-12-13T21:11:50.295Z,21.27
2022-12-13T21:14:22.812Z,21.46
2022-12-13T21:16:55.327Z,21.70
2022-12-13T21:19:39.017Z,21.73
2022-12-13T21:22:09.890Z,21.93
2022-12-13T21:24:39.416Z,22.10
2022-12-13T21:27:09.358Z,22.08
2022-12-13T21:29:38.923Z,22.21
2022-12-13T21:32:08.661Z,22.34
2022-12-13T21:34:38.214Z,22.48
2022-12-13T21:37:07.948Z,22.61
2022-12-13T21:39:37.556Z,22.68
2022-12-13T21:42:07.191Z,22.77
2022-12-13T21:44:37.162Z,22.85
2022-12-13T21:47:13.985Z,22.98
2022-12-13T21:49:48.406Z,22.44
2022-12-13T21:52:18.742Z,20.53
2022-12-13T21:54:48.428Z,19.89
2022-12-13T21:57:35.950Z,19.61
2022-12-13T22:00:06.289Z,19.57
2022-12-13T22:02:35.879Z,19.28
2022-12-13T22:05:05.544Z,19.41
2022-12-13T22:07:35.691Z,19.48
2022-12-13T22:10:05.530Z,19.48
2022-12-13T22:12:38.104Z,19.69
2022-12-13T22:15:10.564Z,19.57
2022-12-13T22:17:40.931Z,19.80
2022-12-13T22:20:16.817Z,20.00
2022-12-13T22:22:46.873Z,20.03
2022-12-13T22:25:16.801Z,20.37
2022-12-13T22:27:46.303Z,20.71
2022-12-13T22:30:15.957Z,21.23
2022-12-13T22:32:45.487Z,20.68
2022-12-13T22:35:16.112Z,20.70
2022-12-13T22:37:45.734Z,20.91
2022-12-13T22:40:18.493Z,21.08
2022-12-13T22:42:48.496Z,21.27
2022-12-13T22:45:18.173Z,21.58
2022-12-13T22:47:47.813Z,21.67
2022-12-13T22:50:18.141Z,21.67
2022-12-13T22:52:47.665Z,21.51
2022-12-13T22:55:18.110Z,21.34
2022-12-13T22:57:48.508Z,21.23
2022-12-13T23:00:18.700Z,21.14
2022-12-13T23:02:48.381Z,20.97
2022-12-13T23:05:18.179Z,20.92
2022-12-13T23:07:48.655Z,20.78
2022-12-13T23:10:36.662Z,20.75
2022-12-13T23:13:06.329Z,20.57
2022-12-13T23:15:42.322Z,20.62
2022-12-13T23:18:14.356Z,20.68
2022-12-13T23:20:43.951Z,20.22
2022-12-13T23:23:18.099Z,20.07
2022-12-13T23:25:48.918Z,20.06
2022-12-13T23:28:18.899Z,20.03
2022-12-13T23:30:48.508Z,20.08
2022-12-13T23:33:18.159Z,20.15
2022-12-13T23:35:48.113Z,20.39
2022-12-13T23:38:18.593Z,20.55
2022-12-13T23:40:48.671Z,20.61
2022-12-13T23:43:20.138Z,20.78
2022-12-13T23:45:50.529Z,20.86
2022-12-13T23:48:26.698Z,20.96
2022-12-13T23:50:59.590Z,20.87
2022-12-13T23:53:33.219Z,21.04
2022-12-13T23:56:12.950Z,21.01
2022-12-13T23:58:50.848Z,21.02
